Time;durP1;ratioP1;P1;durP2;ratioP2;P2;SDS_P1;SDS_P2;PMS_P1;PMS_P2;Temp;Humidity;BMP_temperature;BMP_pressure;BME280_temperature;BME280_humidity;BME280_pressure;Samples;Min_cycle;Max_cycle;Signal;HPM_P1;HPM_P2
2021/09/25 00:01:10;;;;;;;5.10;2.42;;;;;;;12.12;76.99;100477.64;1767864;79;21108;-58
2021/09/25 00:08:57;;;;;;;5.97;2.40;;;;;;;12.20;77.24;100482.18;1765360;81;21096;-59
2021/09/25 00:11:25;;;;;;;7.87;2.90;;;;;;;12.20;77.28;100474.12;1769010;81;21057;-58
2021/09/25 00:13:53;;;;;;;7.22;2.42;;;;;;;12.23;77.28;100484.72;1765944;81;21090;-59
2021/09/25 00:16:20;;;;;;;7.78;2.47;;;;;;;12.23;77.14;100492.78;1764133;81;20995;-58
2021/09/25 00:18:47;;;;;;;11.20;2.47;;;;;;;12.20;77.12;100485.36;1764819;81;21029;-59
2021/09/25 00:21:14;;;;;;;3.25;2.25;;;;;;;12.14;77.21;100484.67;1767170;81;21494;-58
2021/09/25 00:23:41;;;;;;;5.78;2.50;;;;;;;12.13;77.36;100490.13;1762685;81;21040;-58
2021/09/25 00:26:08;;;;;;;11.00;2.27;;;;;;;12.10;77.46;100486.25;1762643;81;21798;-59
2021/09/25 00:28:35;;;;;;;8.35;2.80;;;;;;;12.10;77.55;100492.97;1769256;81;21041;-59
2021/09/25 00:31:02;;;;;;;11.45;2.47;;;;;;;12.09;77.55;100495.25;1762655;81;21348;-59
2021/09/25 00:33:29;;;;;;;7.67;2.67;;;;;;;12.03;77.62;100495.91;1767250;81;21474;-54
2021/09/25 00:35:56;;;;;;;4.67;2.77;;;;;;;12.02;77.77;100494.66;1765770;80;21052;-55
2021/09/25 00:38:23;;;;;;;8.05;2.60;;;;;;;12.00;77.88;100494.67;1762687;81;21065;-53
2021/09/25 00:41:06;;;;;;;6.97;2.40;;;;;;;11.98;78.04;100493.88;1761198;81;21497;-54
2021/09/25 00:43:33;;;;;;;8.20;2.42;;;;;;;11.97;78.05;100492.13;1762823;81;21056;-53
2021/09/25 00:48:41;;;;;;;7.35;2.52;;;;;;;11.91;78.16;100505.84;1783355;80;21068;-54
2021/09/25 00:51:08;;;;;;;7.12;2.45;;;;;;;11.89;78.31;100504.55;1793029;80;21130;-54
2021/09/25 00:53:35;;;;;;;7.37;2.50;;;;;;;11.92;78.38;100504.91;1792858;80;21067;-54
2021/09/25 00:56:04;;;;;;;7.33;2.50;;;;;;;11.91;78.34;100497.79;1793274;78;21036;-53
2021/09/25 00:58:31;;;;;;;8.40;2.55;;;;;;;11.90;78.36;100498.73;1793942;80;21020;-53
2021/09/25 01:00:58;;;;;;;5.30;2.58;;;;;;;11.91;78.33;100508.53;1779866;79;21515;-54
2021/09/25 01:05:57;;;;;;;7.83;2.52;;;;;;;11.92;78.37;100495.95;1793626;80;21044;-54
2021/09/25 01:08:25;;;;;;;8.83;2.70;;;;;;;11.90;78.28;100510.81;1793126;80;21071;-54
2021/09/25 01:13:36;;;;;;;9.58;2.58;;;;;;;11.86;78.57;100517.27;1793594;78;21024;-54
2021/09/25 01:16:05;;;;;;;4.87;2.90;;;;;;;11.86;78.50;100515.93;1793975;78;21184;-54
2021/09/25 01:18:32;;;;;;;6.12;2.52;;;;;;;11.81;78.53;100526.87;1793839;80;20996;-55
2021/09/25 01:21:07;;;;;;;7.60;2.70;;;;;;;11.75;78.56;100517.26;1791962;80;21524;-55
2021/09/25 01:23:34;;;;;;;6.47;2.55;;;;;;;11.68;78.55;100521.16;1792897;80;21117;-55
2021/09/25 01:26:01;;;;;;;10.28;2.35;;;;;;;11.63;78.61;100512.44;1793478;80;21188;-54
2021/09/25 01:28:29;;;;;;;7.05;2.52;;;;;;;11.57;78.69;100520.73;1793659;80;21131;-54
2021/09/25 01:30:56;;;;;;;7.20;2.52;;;;;;;11.54;78.78;100530.27;1793077;80;21341;-55
2021/09/25 01:33:29;;;;;;;6.83;2.37;;;;;;;11.53;78.94;100532.55;1793853;80;21072;-55
2021/09/25 01:36:10;;;;;;;6.03;2.72;;;;;;;11.50;78.92;100542.08;1793751;80;21118;-55
2021/09/25 01:38:39;;;;;;;5.37;2.55;;;;;;;11.47;78.95;100545.75;1791912;80;21641;-54
2021/09/25 01:41:12;;;;;;;8.50;2.45;;;;;;;11.42;78.98;100545.97;1791945;80;21860;-53
2021/09/25 01:46:21;;;;;;;5.83;2.58;;;;;;;11.33;79.08;100553.05;1768803;79;21419;-55
2021/09/25 01:48:50;;;;;;;6.58;2.67;;;;;;;11.31;79.11;100565.66;1770971;81;21361;-54
2021/09/25 01:51:17;;;;;;;5.95;2.60;;;;;;;11.26;79.19;100568.52;1765964;81;21088;-54
2021/09/25 01:56:36;;;;;;;5.42;2.65;;;;;;;11.24;79.31;100565.52;1764521;81;21076;-54
2021/09/25 01:59:04;;;;;;;7.10;2.50;;;;;;;11.22;79.43;100561.53;1769268;79;21399;-54
2021/09/25 02:01:43;;;;;;;4.85;2.35;;;;;;;11.23;79.46;100559.74;1765688;81;21077;-54
2021/09/25 02:04:10;;;;;;;5.72;2.65;;;;;;;11.22;79.31;100562.02;1763021;81;21041;-54
2021/09/25 02:06:37;;;;;;;7.62;2.50;;;;;;;11.18;79.42;100556.79;1766886;81;21120;-54
2021/09/25 02:09:04;;;;;;;9.20;2.50;;;;;;;11.17;79.47;100564.43;1769991;81;21538;-54
2021/09/25 02:11:31;;;;;;;6.85;2.50;;;;;;;11.18;79.49;100572.89;1771023;80;21415;-56
2021/09/25 02:14:07;;;;;;;5.90;2.60;;;;;;;11.18;79.53;100571.55;1765831;81;21197;-54
2021/09/25 02:16:42;;;;;;;8.13;2.50;;;;;;;11.17;79.52;100571.14;1748993;81;21021;-55
2021/09/25 02:21:53;;;;;;;6.72;2.62;;;;;;;11.13;79.70;100568.15;1763711;81;21444;-54
2021/09/25 02:27:02;;;;;;;7.42;2.47;;;;;;;11.08;79.74;100572.83;1767867;80;21458;-54
2021/09/25 02:29:29;;;;;;;8.73;2.58;;;;;;;11.07;79.91;100578.28;1692186;83;21548;-54
2021/09/25 02:31:56;;;;;;;10.10;2.58;;;;;;;11.08;79.90;100583.56;1721244;82;21827;-54
2021/09/25 02:34:23;;;;;;;5.65;2.67;;;;;;;11.08;79.90;100594.30;1707082;83;21038;-54
2021/09/25 02:39:19;;;;;;;7.97;2.50;;;;;;;11.03;79.91;100585.56;1726801;83;21109;-55
2021/09/25 02:41:46;;;;;;;6.87;2.42;;;;;;;11.02;79.91;100592.72;1727220;83;21029;-54
2021/09/25 02:44:13;;;;;;;9.25;3.02;;;;;;;11.00;79.94;100601.78;1724439;83;21475;-54
2021/09/25 02:46:40;;;;;;;9.53;2.62;;;;;;;10.95;80.08;100599.76;1741589;81;22487;-54
2021/09/25 02:49:06;;;;;;;7.15;2.37;;;;;;;10.93;80.23;100598.91;1736417;82;21032;-54
2021/09/25 02:51:33;;;;;;;6.08;2.35;;;;;;;10.92;80.36;100601.19;1717140;81;21124;-54
2021/09/25 02:54:12;;;;;;;6.08;2.80;;;;;;;10.91;80.54;100614.20;1723446;82;21084;-54
2021/09/25 02:56:39;;;;;;;7.30;2.87;;;;;;;10.96;80.58;100613.58;1733872;82;21109;-54
2021/09/25 02:59:11;;;;;;;10.05;3.22;;;;;;;10.98;80.46;100620.61;1728798;82;21524;-54
2021/09/25 03:01:38;;;;;;;8.78;3.37;;;;;;;10.96;80.46;100606.39;1723532;81;21080;-54
2021/09/25 03:04:05;;;;;;;9.68;2.58;;;;;;;10.98;80.42;100613.91;1719545;83;21147;-54
2021/09/25 03:06:32;;;;;;;6.00;2.27;;;;;;;10.93;80.38;100612.33;1721402;83;21049;-58
2021/09/25 03:08:59;;;;;;;10.63;2.85;;;;;;;10.91;80.54;100612.85;1728248;83;21892;-58
2021/09/25 03:11:25;;;;;;;8.10;2.77;;;;;;;10.92;80.71;100612.81;1733454;82;21021;-59
2021/09/25 03:13:52;;;;;;;6.78;2.50;;;;;;;10.95;80.65;100613.17;1721156;83;21040;-58
2021/09/25 03:16:19;;;;;;;8.60;2.33;;;;;;;10.97;80.70;100609.95;1728467;83;21260;-59
2021/09/25 03:18:47;;;;;;;5.53;2.35;;;;;;;11.00;80.59;100615.20;1735490;80;21076;-59
2021/09/25 03:21:14;;;;;;;11.38;3.08;;;;;;;11.00;80.59;100615.20;1720317;81;21127;-54
2021/09/25 03:23:46;;;;;;;10.85;2.67;;;;;;;11.00;80.48;100623.25;1728622;83;21050;-54
2021/09/25 03:26:13;;;;;;;9.48;2.67;;;;;;;10.97;80.34;100628.73;1727220;82;21063;-53
2021/09/25 03:28:40;;;;;;;5.87;2.67;;;;;;;10.91;80.35;100628.95;1726344;81;21036;-55
2021/09/25 03:31:09;;;;;;;8.90;3.45;;;;;;;10.83;80.63;100631.47;1723146;82;21033;-54
2021/09/25 03:33:36;;;;;;;8.55;2.45;;;;;;;10.79;80.76;100632.52;1705624;84;21537;-54
2021/09/25 03:36:06;;;;;;;11.40;2.87;;;;;;;10.80;80.95;100642.77;1728005;82;21579;-54
2021/09/25 03:38:33;;;;;;;10.55;2.83;;;;;;;10.80;81.07;100638.30;1734069;81;20991;-54
2021/09/25 03:41:00;;;;;;;9.00;3.15;;;;;;;10.81;81.10;100641.38;1726313;83;21251;-53
2021/09/25 03:43:27;;;;;;;6.90;2.62;;;;;;;10.82;81.08;100644.47;1721516;83;21072;-53
2021/09/25 03:45:54;;;;;;;8.50;2.90;;;;;;;10.78;81.10;100642.84;1722368;83;22022;-54
2021/09/25 03:48:29;;;;;;;7.90;2.65;;;;;;;10.76;81.17;100655.44;1710626;83;21009;-54
2021/09/25 03:50:56;;;;;;;;;;;;;;;10.75;81.33;100657.23;1726585;81;21746;-54
2021/09/25 03:58:39;;;;;;;10.80;2.75;;;;;;;10.71;81.46;100672.14;1699144;84;21195;-53
2021/09/25 04:08:51;;;;;;;7.78;2.70;;;;;;;10.79;81.80;100687.50;1730002;81;21317;-54
2021/09/25 04:11:18;;;;;;;7.12;2.40;;;;;;;10.82;81.67;100692.74;1722682;83;21141;-54
2021/09/25 04:13:45;;;;;;;8.20;2.80;;;;;;;10.84;81.58;100697.58;1738453;82;21075;-54
2021/09/25 04:16:12;;;;;;;7.47;2.87;;;;;;;10.85;81.54;100701.16;1731542;82;21079;-59
2021/09/25 04:18:39;;;;;;;6.20;3.02;;;;;;;10.85;81.53;100710.06;1718059;83;21077;-58
2021/09/25 04:21:06;;;;;;;11.65;3.12;;;;;;;10.88;81.53;100712.63;1722136;81;21166;-58
2021/09/25 04:23:39;;;;;;;13.25;2.90;;;;;;;10.93;81.48;100715.14;1725601;81;21149;-57
2021/09/25 04:26:18;;;;;;;8.00;2.60;;;;;;;11.00;81.40;100732.75;1726505;83;21084;-59
2021/09/25 04:28:45;;;;;;;7.05;2.75;;;;;;;11.14;81.30;100729.55;1738230;82;21064;-58
2021/09/25 04:31:18;;;;;;;9.33;2.67;;;;;;;11.30;80.81;100724.95;1736486;82;21036;-58
2021/09/25 04:33:47;;;;;;;6.90;3.05;;;;;;;11.43;80.35;100736.98;1733753;82;21409;-59
2021/09/25 04:38:46;;;;;;;9.93;3.17;;;;;;;11.57;79.49;100744.48;1728627;83;21088;-59
2021/09/25 04:41:16;;;;;;;7.30;2.80;;;;;;;11.58;79.06;100737.28;1726831;83;21037;-59
2021/09/25 04:53:44;;;;;;;8.68;2.67;;;;;;;11.89;78.61;100756.23;1747681;81;21083;-59
2021/09/25 04:56:12;;;;;;;10.68;2.85;;;;;;;12.08;77.99;100762.23;1747445;82;21032;-59
2021/09/25 04:58:56;;;;;;;;;;;;;;;12.26;77.41;100761.44;1745994;82;21004;-57
2021/09/25 05:01:24;;;;;;;10.98;3.42;;;;;;;12.46;76.59;100761.96;1746505;81;21130;-58
2021/09/25 05:03:51;;;;;;;9.78;2.80;;;;;;;12.61;76.00;100764.45;1745133;82;21442;-58
2021/09/25 05:06:18;;;;;;;13.80;2.70;;;;;;;12.79;75.38;100773.12;1739154;82;21051;-58
2021/09/25 05:08:45;;;;;;;8.33;3.00;;;;;;;12.96;74.65;100772.40;1730996;82;20988;-58
2021/09/25 05:11:12;;;;;;;8.18;3.27;;;;;;;13.13;74.04;100783.25;1743698;82;21060;-58
2021/09/25 05:13:39;;;;;;;8.63;3.05;;;;;;;13.30;72.96;100774.88;1741971;82;21091;-58
2021/09/25 05:16:14;;;;;;;7.70;2.60;;;;;;;13.37;72.45;100776.34;1743910;82;21553;-59
2021/09/25 05:18:42;;;;;;;9.43;3.10;;;;;;;13.48;72.12;100788.48;1746552;81;21043;-58
2021/09/25 05:21:24;;;;;;;6.05;2.60;;;;;;;13.59;71.79;100780.75;1746688;81;21052;-60
2021/09/25 05:23:51;;;;;;;6.53;2.90;;;;;;;13.70;71.25;100794.61;1741435;82;21072;-58
2021/09/25 05:26:18;;;;;;;7.05;2.52;;;;;;;13.86;71.08;100797.92;1742388;81;21565;-58
2021/09/25 05:28:45;;;;;;;10.38;3.00;;;;;;;14.22;70.67;100809.19;1744832;82;21036;-59
2021/09/25 05:31:12;;;;;;;10.48;2.95;;;;;;;14.72;69.06;100814.86;1744260;82;21477;-58
2021/09/25 05:33:42;;;;;;;6.55;2.58;;;;;;;15.21;67.04;100822.68;1746763;81;21481;-58
2021/09/25 05:36:17;;;;;;;10.25;2.70;;;;;;;15.50;65.64;100812.12;1744899;82;21119;-58
2021/09/25 05:38:44;;;;;;;8.00;2.70;;;;;;;15.82;64.42;100829.75;1741869;82;21106;-59
2021/09/25 05:41:11;;;;;;;10.38;3.12;;;;;;;16.23;62.86;100827.88;1743103;82;21028;-59
2021/09/25 05:43:39;;;;;;;9.38;2.35;;;;;;;16.42;61.81;100841.70;1743464;81;21651;-59
2021/09/25 05:46:05;;;;;;;6.62;2.75;;;;;;;16.26;61.27;100835.85;1745183;81;21048;-59
2021/09/25 05:48:33;;;;;;;7.83;2.80;;;;;;;16.01;61.38;100832.31;1724679;81;21041;-59
2021/09/25 05:51:01;;;;;;;8.18;2.77;;;;;;;15.74;62.37;100845.89;1727137;81;21140;-58
2021/09/25 05:53:28;;;;;;;8.03;2.45;;;;;;;15.59;63.20;100852.17;1732627;82;21037;-58
2021/09/25 05:55:55;;;;;;;13.28;3.58;;;;;;;15.44;63.64;100853.38;1733422;82;20992;-58
2021/09/25 06:03:48;;;;;;;6.62;3.20;;;;;;;14.98;65.45;100855.33;1723201;83;21317;-59
2021/09/25 06:08:47;;;;;;;9.35;3.02;;;;;;;14.90;66.44;100859.77;1722342;82;21064;-58
2021/09/25 06:13:42;;;;;;;8.33;2.65;;;;;;;14.88;66.69;100858.98;1732339;82;21699;-58
2021/09/25 06:16:09;;;;;;;7.60;2.67;;;;;;;14.89;66.72;100871.52;1727774;83;21009;-59
2021/09/25 06:21:21;;;;;;;7.55;2.72;;;;;;;14.99;66.73;100874.63;1715427;83;21442;-56
2021/09/25 06:23:56;;;;;;;11.12;2.98;;;;;;;15.03;66.79;100881.64;1724268;83;21517;-56
2021/09/25 06:26:28;;;;;;;10.72;3.55;;;;;;;15.08;66.71;100892.17;1738559;80;21046;-55
2021/09/25 06:31:24;;;;;;;13.20;3.60;;;;;;;15.15;66.03;100904.42;1733672;82;21077;-54
2021/09/25 06:33:51;;;;;;;11.53;3.50;;;;;;;15.08;66.35;100904.82;1733022;82;21532;-55
2021/09/25 06:36:18;;;;;;;8.60;3.27;;;;;;;15.02;66.80;100910.05;1732458;82;21813;-56
2021/09/25 06:38:46;;;;;;;7.97;3.33;;;;;;;15.09;67.15;100908.77;1735118;82;21084;-54
2021/09/25 06:41:13;;;;;;;8.23;3.50;;;;;;;15.18;66.73;100919.12;1732060;82;21150;-54
2021/09/25 06:43:41;;;;;;;11.55;3.35;;;;;;;15.17;66.41;100918.72;1736292;82;21495;-55
2021/09/25 06:46:09;;;;;;;9.63;3.83;;;;;;;15.17;66.90;100917.38;1733762;82;21045;-60
2021/09/25 06:48:38;;;;;;;10.00;3.58;;;;;;;15.26;66.39;100914.67;1739750;82;22237;-59
2021/09/25 06:51:07;;;;;;;12.23;3.60;;;;;;;15.26;66.29;100924.59;1741048;82;21083;-58
2021/09/25 06:53:34;;;;;;;8.98;3.35;;;;;;;15.27;66.46;100926.33;1741189;81;21068;-58
2021/09/25 06:56:04;;;;;;;8.83;3.35;;;;;;;15.29;66.43;100928.47;1738527;82;21027;-60
2021/09/25 06:58:31;;;;;;;6.87;3.10;;;;;;;15.35;66.33;100921.89;1740012;82;21409;-60
2021/09/25 07:01:04;;;;;;;9.63;3.02;;;;;;;15.53;65.87;100921.38;1734565;81;21112;-59
2021/09/25 07:03:31;;;;;;;12.20;3.22;;;;;;;16.07;65.13;100915.79;1723975;81;21576;-59
2021/09/25 07:06:05;;;;;;;9.70;3.47;;;;;;;16.68;62.78;100913.27;1712513;81;21640;-59
2021/09/25 07:08:32;;;;;;;10.82;4.10;;;;;;;16.83;61.35;100930.94;1754989;80;21631;-59
2021/09/25 07:10:59;;;;;;;13.80;3.50;;;;;;;16.84;61.51;100936.75;1775968;79;21017;-59
2021/09/25 07:13:26;;;;;;;15.32;3.92;;;;;;;16.85;61.38;100933.93;1767998;80;21036;-59
2021/09/25 07:18:33;;;;;;;11.40;3.80;;;;;;;17.83;59.78;100958.42;1770422;79;21510;-58
2021/09/25 07:26:04;;;;;;;10.28;3.30;;;;;;;17.47;58.57;100956.03;1772862;78;21087;-58
2021/09/25 07:28:33;;;;;;;8.30;3.95;;;;;;;17.27;59.17;100953.66;1777543;78;21052;-59
2021/09/25 07:31:01;;;;;;;16.20;4.03;;;;;;;17.10;59.77;100959.59;1776074;79;21823;-58
2021/09/25 07:33:28;;;;;;;13.08;3.60;;;;;;;16.98;60.14;100964.37;1762452;78;22329;-59
2021/09/25 07:35:55;;;;;;;13.62;3.30;;;;;;;16.90;60.68;100952.63;1769866;78;21057;-60
2021/09/25 07:38:22;;;;;;;6.17;2.95;;;;;;;16.93;60.34;100965.98;1760505;78;22126;-59
2021/09/25 07:40:56;;;;;;;9.20;4.08;;;;;;;16.78;60.62;100970.46;1762928;79;21044;-58
2021/09/25 07:43:35;;;;;;;16.35;4.72;;;;;;;16.65;61.29;100978.88;1765003;78;21119;-59
2021/09/25 07:46:01;;;;;;;8.35;3.08;;;;;;;16.61;61.85;100970.94;1770399;78;21426;-58
2021/09/25 07:48:28;;;;;;;10.15;3.52;;;;;;;16.58;61.48;100969.77;1770402;79;21406;-59
2021/09/25 07:50:55;;;;;;;10.25;3.50;;;;;;;16.52;61.83;100968.77;1777286;79;21049;-58
2021/09/25 07:58:29;;;;;;;9.83;3.70;;;;;;;16.30;62.37;100960.51;1782063;78;21017;-59
2021/09/25 08:03:25;;;;;;;9.30;3.20;;;;;;;16.22;63.08;100973.56;1774904;79;21028;-58
2021/09/25 08:05:52;;;;;;;9.00;3.00;;;;;;;16.26;63.14;100976.52;1773328;78;21537;-59
2021/09/25 08:16:07;;;;;;;10.80;2.77;;;;;;;16.48;61.28;100990.20;1771234;79;21494;-58
2021/09/25 08:18:34;;;;;;;8.85;3.00;;;;;;;16.50;61.68;100990.98;1777703;78;21580;-58
2021/09/25 08:21:01;;;;;;;12.45;3.27;;;;;;;16.58;61.12;101004.95;1770919;79;21732;-58
2021/09/25 08:23:28;;;;;;;9.28;2.98;;;;;;;16.65;61.24;100993.30;1775002;78;21087;-58
2021/09/25 08:28:24;;;;;;;9.30;3.17;;;;;;;16.73;60.30;100991.52;1770239;79;21489;-59
2021/09/25 08:30:52;;;;;;;7.28;2.83;;;;;;;16.77;60.39;100989.02;1767942;78;21080;-59
2021/09/25 08:38:38;;;;;;;10.75;4.17;;;;;;;16.83;60.61;101002.20;1771852;78;21091;-59
2021/09/25 08:41:10;;;;;;;9.45;3.00;;;;;;;16.96;59.79;100986.61;1776815;78;21424;-58
2021/09/25 08:43:37;;;;;;;9.73;3.00;;;;;;;17.11;59.50;100990.28;1776371;78;21087;-59
2021/09/25 08:46:09;;;;;;;9.00;2.80;;;;;;;17.18;57.85;100999.31;1776551;78;21125;-58
2021/09/25 08:56:48;;;;;;;13.03;3.25;;;;;;;17.47;57.01;101004.83;1767101;79;21134;-60
2021/09/25 08:59:15;;;;;;;8.05;2.10;;;;;;;17.66;56.38;101006.42;1763912;80;21123;-59
2021/09/25 09:06:39;;;;;;;10.35;3.05;;;;;;;17.97;52.81;101012.66;1764904;79;21438;-61
2021/09/25 09:09:08;;;;;;;11.85;2.70;;;;;;;17.96;53.28;100998.70;1758877;79;21050;-58
2021/09/25 09:14:13;;;;;;;9.63;3.00;;;;;;;18.11;53.09;101002.83;1756719;79;21084;-59
2021/09/25 09:16:57;;;;;;;4.70;1.70;;;;;;;18.25;51.22;101004.20;1766376;81;21029;-55
2021/09/25 09:22:01;;;;;;;16.42;5.97;;;;;;;18.15;50.76;101011.16;1763826;80;21557;-59
2021/09/25 09:24:45;;;;;;;9.40;2.62;;;;;;;18.09;51.56;101000.20;1766974;79;21630;-59
2021/09/25 09:27:28;;;;;;;8.10;2.27;;;;;;;18.20;51.57;101004.95;1703640;82;22191;-59
2021/09/25 09:30:38;;;;;;;6.72;2.02;;;;;;;18.36;50.64;100998.55;1731877;81;21115;-58
2021/09/25 09:33:05;;;;;;;7.20;1.70;;;;;;;18.55;50.00;100995.52;1694693;82;21100;-58
2021/09/25 09:35:32;;;;;;;34.92;20.32;;;;;;;18.72;47.81;101001.22;1719286;81;21035;-58
2021/09/25 09:37:59;;;;;;;9.08;3.33;;;;;;;18.79;46.93;101002.55;1762328;79;21116;-59
2021/09/25 09:40:30;;;;;;;8.78;2.35;;;;;;;18.87;46.96;101003.41;1762772;79;21091;-59
2021/09/25 09:42:58;;;;;;;6.67;1.70;;;;;;;18.89;45.85;101011.83;1761991;79;21501;-58
2021/09/25 09:45:28;;;;;;;8.13;1.60;;;;;;;18.98;45.02;101017.64;1756882;79;21423;-59
2021/09/25 09:48:03;;;;;;;17.25;7.87;;;;;;;19.06;44.50;101017.17;1759190;80;21600;-58
2021/09/25 09:53:14;;;;;;;7.28;1.75;;;;;;;19.17;44.72;101017.30;1759779;80;21041;-59
2021/09/25 09:55:41;;;;;;;48.40;30.77;;;;;;;19.06;44.58;101028.89;1765185;79;21065;-59
2021/09/25 09:58:08;;;;;;;18.77;6.97;;;;;;;18.89;44.14;101025.91;1765602;79;21098;-59
2021/09/25 10:00:36;;;;;;;11.28;4.75;;;;;;;18.76;44.80;101016.34;1769607;79;21455;-59
2021/09/25 10:03:06;;;;;;;7.75;2.05;;;;;;;18.65;43.72;101019.76;1765002;79;21125;-59
2021/09/25 10:05:33;;;;;;;6.15;1.57;;;;;;;18.46;44.08;101033.66;1763166;80;21606;-59
2021/09/25 10:08:00;;;;;;;6.28;1.50;;;;;;;18.36;44.80;101024.34;1739736;81;21044;-59
2021/09/25 10:10:27;;;;;;;8.83;1.82;;;;;;;18.30;44.82;101023.77;1748125;81;21010;-59
2021/09/25 10:12:54;;;;;;;3.42;1.40;;;;;;;18.28;45.03;101035.67;1769029;81;21093;-60
2021/09/25 10:15:30;;;;;;;5.70;1.60;;;;;;;18.33;45.18;101031.71;1765032;79;21141;-58
2021/09/25 10:17:58;;;;;;;7.15;1.92;;;;;;;18.43;45.43;101043.33;1752304;81;21037;-59
2021/09/25 10:20:25;;;;;;;7.72;2.00;;;;;;;18.53;45.57;101048.58;1769281;81;21301;-59
2021/09/25 10:22:52;;;;;;;8.60;1.80;;;;;;;18.61;45.68;101044.87;1769016;81;21084;-58
2021/09/25 10:25:28;;;;;;;11.85;3.12;;;;;;;18.72;45.25;101046.03;1767761;81;21033;-59
2021/09/25 10:27:57;;;;;;;4.37;1.67;;;;;;;18.73;45.70;101048.63;1764740;81;21146;-59
2021/09/25 10:30:51;;;;;;;5.15;1.57;;;;;;;18.75;45.94;101037.69;1756105;81;21697;-59
2021/09/25 10:33:18;;;;;;;47.03;26.33;;;;;;;18.89;45.97;101044.42;1765523;81;20997;-59
2021/09/25 10:38:34;;;;;;;11.93;2.02;;;;;;;19.02;44.54;101035.51;1769050;80;22436;-58
2021/09/25 10:43:36;;;;;;;8.13;1.50;;;;;;;19.04;43.27;101048.50;1768694;81;37396;-60
2021/09/25 10:46:01;;;;;;;11.65;2.27;;;;;;;19.00;43.46;101045.61;1741312;79;21131;-59
2021/09/25 10:48:29;;;;;;;5.70;1.90;;;;;;;19.02;43.95;101042.30;1767063;80;20942;-58
2021/09/25 10:51:09;;;;;;;8.53;1.65;;;;;;;18.99;43.98;101042.51;1787246;79;21039;-58
2021/09/25 11:16:10;;;;;;;6.00;2.10;;;;;;;19.01;44.97;101067.73;1786374;80;21604;-61
2021/09/25 11:21:06;;;;;;;11.57;4.65;;;;;;;18.90;44.95;101062.50;1787447;80;21079;-60
2021/09/25 11:27:52;;;;;;;11.70;2.22;;;;;;;18.96;44.37;101064.42;1773310;80;28229;-60
2021/09/25 11:33:11;;;;;;;;;;;;;;;18.80;45.06;101080.34;1768802;79;21557;-60
2021/09/25 11:39:10;;;;;;;8.88;2.15;;;;;;;18.87;45.32;101077.61;1697306;83;21000;-57
2021/09/25 11:41:37;;;;;;;9.15;2.30;;;;;;;18.90;44.79;101076.08;1658008;86;20976;-57
2021/09/25 11:44:07;;;;;;;8.75;2.22;;;;;;;18.85;44.81;101083.63;1697237;84;21519;-57
2021/09/25 11:46:34;;;;;;;11.83;3.02;;;;;;;18.84;45.29;101076.45;1654761;86;21068;-57
2021/09/25 11:49:01;;;;;;;10.48;2.30;;;;;;;18.92;45.24;101081.90;1656811;86;21537;-57
2021/09/25 11:51:28;;;;;;;9.90;2.58;;;;;;;18.99;44.85;101068.32;1707349;79;21531;-61
2021/09/25 11:53:56;;;;;;;9.28;2.77;;;;;;;19.02;44.69;101066.75;1706371;83;21016;-59
2021/09/25 11:56:27;;;;;;;18.10;2.67;;;;;;;19.08;44.28;101073.13;1779841;80;20993;-61
2021/09/25 11:59:00;;;;;;;12.28;2.15;;;;;;;19.11;43.98;101066.64;1777571;80;21024;-61
2021/09/25 12:01:27;;;;;;;6.67;2.33;;;;;;;19.08;44.26;101073.13;1772567;80;20901;-62
2021/09/25 12:03:54;;;;;;;8.00;2.33;;;;;;;19.01;44.30;101071.80;1789082;80;21505;-60
2021/09/25 12:06:21;;;;;;;9.80;2.50;;;;;;;19.05;44.39;101063.83;1788587;80;21030;-60
2021/09/25 12:08:50;;;;;;;7.67;2.20;;;;;;;19.06;44.17;101070.16;1781664;80;21056;-61
2021/09/25 12:11:17;;;;;;;11.28;3.83;;;;;;;19.08;44.13;101071.77;1785576;80;21626;-59
2021/09/25 12:13:45;;;;;;;12.40;3.58;;;;;;;19.03;44.11;101079.36;1783433;80;21520;-61
2021/09/25 12:16:17;;;;;;;11.73;2.80;;;;;;;18.94;44.84;101075.88;1782128;80;21202;-61
2021/09/25 12:18:52;;;;;;;9.63;3.08;;;;;;;18.92;45.17;101084.61;1764280;80;21023;-61
2021/09/25 12:21:20;;;;;;;8.45;2.50;;;;;;;18.90;45.28;101093.73;1786126;79;21075;-60
2021/09/25 12:24:06;;;;;;;7.78;2.60;;;;;;;18.92;45.25;101087.33;1782722;80;20975;-61
2021/09/25 12:26:34;;;;;;;8.75;2.52;;;;;;;18.90;44.96;101089.66;1781448;79;20964;-60
2021/09/25 12:29:03;;;;;;;11.57;2.30;;;;;;;18.85;45.13;101086.34;1782534;80;21289;-60
2021/09/25 12:31:35;;;;;;;10.70;2.47;;;;;;;18.83;45.13;101084.22;1781692;80;21076;-59
2021/09/25 12:34:16;;;;;;;7.60;2.27;;;;;;;18.86;45.36;101071.79;1783238;80;21063;-59
2021/09/25 12:36:46;;;;;;;13.50;2.80;;;;;;;18.97;45.07;101086.53;1781741;80;20937;-60
2021/09/25 12:39:23;;;;;;;9.35;3.08;;;;;;;19.09;44.44;101085.75;1781056;80;21063;-61
2021/09/25 12:42:02;;;;;;;11.60;2.58;;;;;;;19.20;44.14;101099.13;1780961;80;21771;-62
2021/09/25 12:44:36;;;;;;;7.67;2.20;;;;;;;19.24;43.73;101091.16;1781656;79;20877;-62
2021/09/25 12:47:04;;;;;;;8.13;2.05;;;;;;;19.18;44.01;101089.23;1781941;80;20929;-61
2021/09/25 12:49:36;;;;;;;9.58;2.80;;;;;;;19.16;43.92;101089.83;1787279;80;20967;-61
2021/09/25 12:52:17;;;;;;;15.72;2.47;;;;;;;19.18;43.68;101096.50;1727746;82;21165;-60
2021/09/25 12:54:46;;;;;;;8.80;2.33;;;;;;;19.22;43.82;101070.00;1765925;81;20944;-60
2021/09/25 12:57:20;;;;;;;10.15;2.30;;;;;;;19.32;43.11;101077.44;1732371;82;21043;-60
2021/09/25 12:59:50;;;;;;;8.83;2.20;;;;;;;19.34;43.14;101069.16;1740755;82;20976;-60
2021/09/25 13:02:20;;;;;;;7.85;2.25;;;;;;;19.31;43.52;101073.45;1746663;81;21064;-61
2021/09/25 13:04:53;;;;;;;14.18;2.37;;;;;;;19.36;43.46;101080.83;1751093;81;21008;-61
2021/09/25 13:07:34;;;;;;;11.65;2.17;;;;;;;19.38;43.59;101080.23;1730240;81;21919;-60
2021/09/25 13:10:20;;;;;;;7.83;2.12;;;;;;;19.40;43.51;101086.45;1750581;81;20997;-61
2021/09/25 13:12:53;;;;;;;7.80;2.17;;;;;;;19.42;43.24;101087.21;1738650;81;20996;-61
2021/09/25 13:15:30;;;;;;;8.50;2.25;;;;;;;19.42;42.71;101089.92;1736673;81;21084;-61
2021/09/25 13:17:59;;;;;;;6.58;2.20;;;;;;;19.31;43.01;101096.55;1738488;81;21052;-61
2021/09/25 13:20:28;;;;;;;7.28;2.10;;;;;;;19.26;43.32;101075.61;1739908;81;21181;-60
2021/09/25 13:23:01;;;;;;;6.50;1.82;;;;;;;19.25;43.15;101088.82;1742060;81;21094;-61
2021/09/25 13:25:28;;;;;;;7.58;2.12;;;;;;;19.22;42.88;101087.67;1741022;81;20957;-61
2021/09/25 13:27:56;;;;;;;5.65;2.12;;;;;;;19.17;42.93;101085.25;1742322;81;21059;-61
2021/09/25 13:30:24;;;;;;;9.00;2.40;;;;;;;19.16;42.58;101089.83;1740222;81;21068;-61
2021/09/25 13:32:51;;;;;;;7.40;2.08;;;;;;;19.15;42.74;101096.23;1749964;80;21145;-61
2021/09/25 13:35:18;;;;;;;8.50;2.30;;;;;;;19.11;42.71;101089.73;1727373;82;21025;-62
2021/09/25 13:37:45;;;;;;;4.62;2.15;;;;;;;19.10;42.83;101086.12;1761121;80;21718;-61
2021/09/25 13:40:12;;;;;;;6.90;1.90;;;;;;;19.14;42.70;101091.78;1731784;82;21080;-61
2021/09/25 13:42:41;;;;;;;8.35;1.90;;;;;;;19.17;42.52;101102.44;1729448;82;21381;-61
2021/09/25 13:45:10;;;;;;;8.40;2.58;;;;;;;19.18;42.57;101097.39;1764098;80;21405;-61
2021/09/25 13:47:37;;;;;;;14.10;3.33;;;;;;;19.22;42.23;101104.83;1744209;82;21061;-61
2021/09/25 13:50:05;;;;;;;7.10;2.10;;;;;;;19.21;42.79;101100.88;1727396;81;21119;-61
2021/09/25 13:52:32;;;;;;;10.15;2.65;;;;;;;19.20;42.97;101099.13;1800637;79;21406;-62
2021/09/25 13:54:59;;;;;;;8.70;2.00;;;;;;;19.22;43.14;101098.54;1778926;79;21489;-61
2021/09/25 13:57:27;;;;;;;7.87;2.35;;;;;;;19.25;43.14;101098.33;1782683;79;21824;-61
2021/09/25 13:59:53;;;;;;;8.15;2.20;;;;;;;19.31;43.05;101097.91;1759242;79;20983;-61
2021/09/25 14:02:20;;;;;;;9.68;2.45;;;;;;;19.34;42.99;101100.42;1771602;79;21017;-62
2021/09/25 14:04:47;;;;;;;9.98;2.20;;;;;;;19.33;42.91;101104.12;1759686;79;21062;-61
2021/09/25 14:07:14;;;;;;;5.92;1.70;;;;;;;19.32;42.60;101099.66;1786300;79;20974;-61
2021/09/25 14:09:41;;;;;;;15.60;2.22;;;;;;;19.32;42.73;101101.91;1759477;81;21366;-60
2021/09/25 14:12:10;;;;;;;12.85;2.47;;;;;;;19.41;42.46;101102.25;1768984;79;21161;-61
2021/09/25 14:14:37;;;;;;;8.65;1.87;;;;;;;19.50;42.29;101108.45;1807249;79;21025;-61